createdAt,value
2023-03-27T00:01:18.591Z,7.66
2023-03-27T00:04:09.112Z,7.54
2023-03-27T00:06:59.534Z,7.58
2023-03-27T00:09:49.447Z,7.53
2023-03-27T00:12:39.123Z,7.55
2023-03-27T00:15:27.624Z,7.48
2023-03-27T00:18:16.125Z,7.50
2023-03-27T00:21:05.098Z,7.29
2023-03-27T00:23:54.494Z,7.50
2023-03-27T00:26:44.541Z,7.50
2023-03-27T00:29:33.300Z,7.39
2023-03-27T00:32:21.867Z,7.35
2023-03-27T00:35:12.240Z,7.43
2023-03-27T00:38:01.083Z,7.35
2023-03-27T00:40:50.759Z,7.31
2023-03-27T00:43:43.742Z,6.76
2023-03-27T00:46:38.962Z,7.21
2023-03-27T00:49:30.659Z,7.12
2023-03-27T00:52:21.366Z,7.21
2023-03-27T00:55:14.182Z,7.25
2023-03-27T00:58:06.399Z,7.24
2023-03-27T01:00:57.558Z,7.12
2023-03-27T01:03:47.859Z,7.08
2023-03-27T01:06:37.164Z,7.11
2023-03-27T01:09:27.222Z,7.10
2023-03-27T01:12:23.377Z,7.22
2023-03-27T01:15:23.673Z,7.13
2023-03-27T01:18:26.674Z,7.01
2023-03-27T01:21:54.829Z,7.16
2023-03-27T01:25:08.942Z,7.02
2023-03-27T01:28:17.838Z,6.83
2023-03-27T01:31:16.538Z,6.85
2023-03-27T01:34:22.643Z,6.80
2023-03-27T01:37:28.625Z,6.61
2023-03-27T01:40:20.651Z,6.61
2023-03-27T01:43:12.774Z,6.52
2023-03-27T01:46:07.902Z,6.51
2023-03-27T01:48:59.224Z,6.53
2023-03-27T01:51:50.766Z,6.45
2023-03-27T01:54:41.149Z,6.50
2023-03-27T01:57:34.198Z,6.43
2023-03-27T02:00:24.788Z,6.38
2023-03-27T02:03:16.999Z,6.43
2023-03-27T02:06:08.622Z,6.27
2023-03-27T02:09:01.127Z,6.43
2023-03-27T02:11:52.931Z,6.34
2023-03-27T02:14:46.466Z,6.21
2023-03-27T02:17:38.584Z,6.27
2023-03-27T02:20:27.114Z,6.30
2023-03-27T02:23:15.587Z,6.22
2023-03-27T02:26:04.252Z,6.24
2023-03-27T02:29:12.585Z,6.14
2023-03-27T02:32:12.655Z,6.18
2023-03-27T02:35:12.560Z,6.12
2023-03-27T02:38:09.606Z,5.49
2023-03-27T02:41:06.763Z,6.08
2023-03-27T02:44:01.637Z,6.13
2023-03-27T02:46:53.932Z,6.01
2023-03-27T02:49:46.691Z,5.94
2023-03-27T02:52:37.396Z,5.81
2023-03-27T02:55:27.719Z,5.83
2023-03-27T02:58:19.749Z,5.83
2023-03-27T03:01:10.699Z,5.90
2023-03-27T03:04:01.318Z,5.82
2023-03-27T03:06:51.237Z,5.74
2023-03-27T03:09:40.288Z,5.76
2023-03-27T03:12:29.602Z,5.72
2023-03-27T03:15:19.125Z,5.67
2023-03-27T03:18:09.154Z,5.60
2023-03-27T03:20:57.824Z,5.53
2023-03-27T03:23:58.075Z,5.44
2023-03-27T03:26:50.093Z,5.32
2023-03-27T03:29:38.546Z,5.00
2023-03-27T03:32:27.463Z,5.03
2023-03-27T03:35:16.095Z,4.94
2023-03-27T03:38:04.739Z,4.84
2023-03-27T03:40:56.118Z,4.80
2023-03-27T03:43:44.765Z,4.82
2023-03-27T03:46:33.302Z,4.68
2023-03-27T03:49:21.866Z,4.54
2023-03-27T03:52:10.911Z,4.53
2023-03-27T03:54:59.419Z,4.61
2023-03-27T03:57:50.147Z,4.50
2023-03-27T04:00:39.732Z,4.47
2023-03-27T04:03:32.296Z,4.43
2023-03-27T04:06:21.608Z,4.47
2023-03-27T04:09:11.084Z,4.44
2023-03-27T04:11:59.594Z,4.33
2023-03-27T04:14:49.719Z,4.33
2023-03-27T04:17:39.670Z,4.23
2023-03-27T04:20:28.227Z,4.27
2023-03-27T04:23:18.539Z,4.17
2023-03-27T04:26:07.583Z,4.15
2023-03-27T04:28:56.111Z,4.23
2023-03-27T04:31:46.538Z,4.15
2023-03-27T04:34:38.304Z,4.03
2023-03-27T04:37:27.072Z,4.10
2023-03-27T04:40:17.940Z,4.13
2023-03-27T04:43:07.667Z,4.13
2023-03-27T04:45:56.762Z,4.16
2023-03-27T04:48:46.865Z,4.16
2023-03-27T04:51:35.380Z,4.23
2023-03-27T04:54:23.895Z,4.14
2023-03-27T04:57:12.508Z,4.25
2023-03-27T05:00:01.828Z,4.11
2023-03-27T05:02:53.729Z,4.21
2023-03-27T05:05:43.563Z,4.08
2023-03-27T05:08:32.608Z,4.19
2023-03-27T05:11:21.265Z,4.08
2023-03-27T05:14:09.725Z,4.18
2023-03-27T05:17:00.782Z,4.03
2023-03-27T05:19:49.290Z,4.11
2023-03-27T05:22:39.122Z,4.08
2023-03-27T05:25:27.742Z,4.11
2023-03-27T05:28:16.333Z,4.03
2023-03-27T05:31:05.272Z,4.21
2023-03-27T05:33:54.002Z,4.18
2023-03-27T05:36:42.880Z,4.02
2023-03-27T05:39:32.724Z,4.01
2023-03-27T05:42:21.249Z,3.92
2023-03-27T05:45:10.575Z,4.17
2023-03-27T05:48:00.254Z,4.12
2023-03-27T05:50:48.708Z,4.22
2023-03-27T05:53:39.182Z,4.20
2023-03-27T05:56:29.074Z,4.16
2023-03-27T05:59:17.650Z,4.21
2023-03-27T06:02:06.237Z,4.23
2023-03-27T06:04:54.779Z,4.18
2023-03-27T06:07:43.627Z,4.27
2023-03-27T06:10:33.807Z,3.64
2023-03-27T06:13:24.181Z,4.23
2023-03-27T06:16:12.735Z,4.18
2023-03-27T06:19:01.399Z,4.29
2023-03-27T06:21:49.886Z,4.43
2023-03-27T06:24:42.569Z,4.59
2023-03-27T06:27:32.066Z,4.77
2023-03-27T06:30:23.526Z,4.80
2023-03-27T06:33:12.083Z,4.60
2023-03-27T06:36:01.329Z,4.66
2023-03-27T06:38:49.894Z,4.63
2023-03-27T06:41:38.452Z,4.66
2023-03-27T06:44:26.876Z,4.79
2023-03-27T06:47:16.771Z,4.79
2023-03-27T06:50:06.640Z,5.15
2023-03-27T06:52:55.231Z,5.46
2023-03-27T06:55:44.587Z,5.61
2023-03-27T06:58:33.125Z,5.65
2023-03-27T07:01:21.644Z,5.60
2023-03-27T07:04:12.297Z,5.57
2023-03-27T07:07:00.944Z,5.91
2023-03-27T07:09:50.070Z,6.19
2023-03-27T07:12:40.025Z,6.57
2023-03-27T07:15:28.536Z,6.72
2023-03-27T07:18:17.553Z,6.73
2023-03-27T07:21:08.590Z,6.71
2023-03-27T07:23:57.089Z,6.93
2023-03-27T07:26:45.671Z,7.20
2023-03-27T07:29:34.190Z,7.01
2023-03-27T07:32:36.400Z,6.99
2023-03-27T07:35:25.858Z,7.15
2023-03-27T07:38:16.589Z,7.25
2023-03-27T07:41:06.886Z,7.56
2023-03-27T07:43:55.488Z,7.95
2023-03-27T07:46:44.495Z,8.05
2023-03-27T07:49:40.210Z,8.43
2023-03-27T07:52:29.380Z,8.71
2023-03-27T07:55:19.841Z,8.88
2023-03-27T07:58:09.061Z,8.91
2023-03-27T08:01:01.931Z,8.81
2023-03-27T08:03:52.078Z,8.75
2023-03-27T08:06:40.706Z,8.58
2023-03-27T08:09:29.196Z,8.53
2023-03-27T08:12:19.658Z,8.46
2023-03-27T08:15:09.373Z,8.05
2023-03-27T08:18:00.444Z,7.90
2023-03-27T08:20:49.682Z,7.84
2023-03-27T08:23:38.728Z,7.65
2023-03-27T08:26:27.712Z,7.72
2023-03-27T08:29:17.886Z,7.61
2023-03-27T08:32:09.840Z,7.47
2023-03-27T08:34:58.371Z,7.98
2023-03-27T08:37:47.073Z,8.02
2023-03-27T08:40:37.058Z,8.20
2023-03-27T08:43:27.366Z,7.86
2023-03-27T08:46:21.157Z,7.89
2023-03-27T08:49:12.858Z,7.95
2023-03-27T08:52:02.588Z,8.06
2023-03-27T08:54:58.220Z,7.17
2023-03-27T08:57:47.062Z,7.54
2023-03-27T09:00:39.549Z,7.91
2023-03-27T09:03:32.066Z,8.08
2023-03-27T09:06:26.486Z,8.63
2023-03-27T09:09:24.202Z,8.27
2023-03-27T09:12:19.944Z,7.57
2023-03-27T09:15:12.857Z,7.40
2023-03-27T09:18:04.156Z,7.25
2023-03-27T09:20:56.647Z,7.32
2023-03-27T09:23:46.337Z,7.49
2023-03-27T09:26:37.644Z,7.59
2023-03-27T09:29:29.904Z,7.66
2023-03-27T09:32:18.442Z,7.99
2023-03-27T09:35:07.294Z,8.37
2023-03-27T09:38:03.710Z,8.12
2023-03-27T09:40:56.268Z,8.71
2023-03-27T09:43:55.549Z,9.28
2023-03-27T09:46:45.792Z,9.35
2023-03-27T09:49:35.798Z,8.73
2023-03-27T09:52:35.706Z,8.31
2023-03-27T09:55:30.629Z,8.06
2023-03-27T09:58:32.442Z,8.22
2023-03-27T10:01:29.293Z,8.55
2023-03-27T10:04:19.290Z,8.56
2023-03-27T10:07:10.241Z,8.78
2023-03-27T10:10:11.602Z,9.11
2023-03-27T10:13:03.362Z,9.34
2023-03-27T10:15:51.954Z,9.30
2023-03-27T10:18:44.147Z,8.81
2023-03-27T10:21:33.804Z,8.68
2023-03-27T10:24:25.023Z,8.78
2023-03-27T10:27:20.028Z,8.68
2023-03-27T10:30:28.558Z,8.78
2023-03-27T10:33:30.362Z,8.87
2023-03-27T10:36:18.951Z,9.39
2023-03-27T10:39:11.941Z,9.23
2023-03-27T10:42:04.019Z,9.03
2023-03-27T10:44:54.504Z,9.04
2023-03-27T10:47:47.334Z,8.96
2023-03-27T10:50:41.594Z,9.48
2023-03-27T10:53:37.311Z,9.78
2023-03-27T10:56:28.475Z,10.15
2023-03-27T10:59:28.079Z,10.48
2023-03-27T11:02:28.579Z,10.63
2023-03-27T11:05:21.824Z,10.26
2023-03-27T11:08:14.512Z,10.29
2023-03-27T11:11:08.427Z,10.06
2023-03-27T11:14:02.361Z,9.83
2023-03-27T11:16:52.733Z,9.56
2023-03-27T11:19:45.793Z,9.43
2023-03-27T11:22:40.665Z,9.15
2023-03-27T11:25:36.799Z,9.14
2023-03-27T11:28:27.023Z,9.50
2023-03-27T11:31:23.754Z,9.63
2023-03-27T11:34:29.476Z,9.48
2023-03-27T11:37:21.488Z,9.47
2023-03-27T11:40:18.199Z,9.08
2023-03-27T11:43:07.107Z,9.36
2023-03-27T11:46:02.548Z,9.46
2023-03-27T11:49:02.894Z,9.67
2023-03-27T11:51:59.075Z,9.67
2023-03-27T11:54:55.878Z,9.52
2023-03-27T11:57:56.762Z,9.61
2023-03-27T12:00:50.018Z,9.80
2023-03-27T12:04:03.582Z,9.72
2023-03-27T12:07:04.004Z,9.85
2023-03-27T12:10:03.428Z,9.78
2023-03-27T12:13:18.211Z,10.01
2023-03-27T12:16:25.186Z,9.98
2023-03-27T12:19:30.007Z,9.96
2023-03-27T12:22:31.332Z,9.79
2023-03-27T12:25:39.843Z,9.56
2023-03-27T12:28:41.147Z,9.58
2023-03-27T12:31:42.289Z,9.49
2023-03-27T12:34:40.186Z,9.46
2023-03-27T12:37:31.097Z,9.41
2023-03-27T12:40:39.020Z,9.14
2023-03-27T12:43:31.491Z,8.96
2023-03-27T12:46:33.081Z,8.76
2023-03-27T12:49:57.844Z,8.21
2023-03-27T12:52:46.447Z,8.08
2023-03-27T12:55:37.174Z,7.87
2023-03-27T12:58:33.266Z,7.63
2023-03-27T13:01:36.306Z,7.45
2023-03-27T13:04:54.786Z,6.94
2023-03-27T13:07:49.005Z,7.28
2023-03-27T13:10:46.391Z,7.38
2023-03-27T13:13:57.940Z,7.51
2023-03-27T13:17:11.229Z,7.69
2023-03-27T13:20:09.877Z,7.96
2023-03-27T13:23:08.227Z,8.09
2023-03-27T13:26:08.625Z,8.19
2023-03-27T13:28:57.813Z,8.39
2023-03-27T13:32:06.082Z,8.35
2023-03-27T13:35:05.446Z,8.28
2023-03-27T13:37:58.926Z,8.35
2023-03-27T13:40:49.704Z,8.53
2023-03-27T13:43:38.650Z,8.67
2023-03-27T13:46:29.186Z,8.74
2023-03-27T13:49:23.421Z,8.93
2023-03-27T13:52:28.651Z,9.15
2023-03-27T13:55:34.584Z,9.43
2023-03-27T13:58:36.018Z,9.41
2023-03-27T14:01:43.264Z,9.54
2023-03-27T14:05:09.193Z,9.39
2023-03-27T14:08:30.406Z,9.45
2023-03-27T14:11:38.055Z,9.69
2023-03-27T14:14:45.877Z,9.49
2023-03-27T14:17:46.099Z,9.57
2023-03-27T14:20:40.268Z,9.03
2023-03-27T14:23:32.416Z,9.13
2023-03-27T14:26:24.626Z,8.88
2023-03-27T14:29:15.406Z,8.67
2023-03-27T14:32:05.400Z,8.53
2023-03-27T14:34:54.989Z,8.35
2023-03-27T14:37:44.961Z,8.14
2023-03-27T14:40:35.207Z,7.86
2023-03-27T14:43:24.068Z,7.44
2023-03-27T14:46:13.256Z,7.08
2023-03-27T14:49:02.060Z,6.45
2023-03-27T14:51:53.552Z,6.14
2023-03-27T14:54:54.735Z,5.89
2023-03-27T14:57:44.532Z,5.99
2023-03-27T15:00:35.077Z,5.96
2023-03-27T15:03:26.415Z,6.01
2023-03-27T15:06:16.984Z,5.85
2023-03-27T15:09:14.258Z,5.71
2023-03-27T15:12:04.220Z,5.71
2023-03-27T15:14:53.771Z,5.68
2023-03-27T15:17:44.793Z,5.95
2023-03-27T15:20:34.490Z,6.06
2023-03-27T15:23:25.058Z,6.07
2023-03-27T15:26:18.452Z,6.31
2023-03-27T15:29:13.754Z,6.02
2023-03-27T15:32:08.778Z,6.37
2023-03-27T15:34:59.650Z,6.39
2023-03-27T15:37:48.987Z,6.40
2023-03-27T15:40:41.785Z,6.35
2023-03-27T15:43:31.814Z,6.21
2023-03-27T15:46:26.099Z,5.87
2023-03-27T15:49:23.657Z,5.86
2023-03-27T15:52:33.694Z,5.87
2023-03-27T15:55:42.195Z,6.30
2023-03-27T15:58:35.856Z,6.66
2023-03-27T16:01:30.041Z,6.68
2023-03-27T16:04:20.246Z,6.72
2023-03-27T16:07:11.291Z,6.76
2023-03-27T16:10:02.929Z,6.84
2023-03-27T16:12:52.949Z,6.87
2023-03-27T16:15:43.636Z,6.92
2023-03-27T16:18:36.598Z,6.89
2023-03-27T16:21:27.626Z,6.95
2023-03-27T16:24:16.110Z,7.03
2023-03-27T16:27:04.738Z,6.98
2023-03-27T16:29:53.885Z,6.91
2023-03-27T16:32:42.464Z,6.97
2023-03-27T16:35:33.778Z,6.37
2023-03-27T16:38:22.721Z,6.96
2023-03-27T16:41:13.818Z,7.03
2023-03-27T16:44:02.305Z,7.02
2023-03-27T16:46:51.199Z,7.10
2023-03-27T16:49:40.134Z,6.61
2023-03-27T16:52:29.959Z,7.19
2023-03-27T16:55:18.565Z,7.25
2023-03-27T16:58:07.051Z,7.31
2023-03-27T17:00:55.729Z,7.21
2023-03-27T17:03:44.292Z,7.32
2023-03-27T17:06:33.297Z,7.30
2023-03-27T17:09:23.425Z,7.16
2023-03-27T17:12:12.077Z,7.07
2023-03-27T17:15:00.694Z,7.02
2023-03-27T17:17:50.054Z,6.93
2023-03-27T17:20:38.811Z,7.02
2023-03-27T17:23:27.363Z,6.92
2023-03-27T17:26:23.737Z,6.88
2023-03-27T17:29:12.229Z,6.71
2023-03-27T17:32:02.094Z,6.57
2023-03-27T17:34:52.057Z,6.64
2023-03-27T17:37:41.351Z,6.65
2023-03-27T17:40:29.845Z,6.54
2023-03-27T17:43:19.781Z,6.52
2023-03-27T17:46:08.504Z,6.46
2023-03-27T17:48:57.998Z,6.36
2023-03-27T17:51:46.488Z,6.25
2023-03-27T17:54:35.216Z,6.27
2023-03-27T17:57:23.916Z,6.22
2023-03-27T18:00:15.225Z,6.15
2023-03-27T18:03:04.185Z,6.21
2023-03-27T18:05:53.130Z,6.04
2023-03-27T18:08:42.016Z,6.00
2023-03-27T18:11:30.799Z,6.03
2023-03-27T18:14:19.286Z,6.09
2023-03-27T18:17:09.124Z,5.99
2023-03-27T18:19:57.555Z,5.96
2023-03-27T18:22:47.041Z,6.00
2023-03-27T18:25:35.580Z,5.87
2023-03-27T18:28:24.731Z,5.92
2023-03-27T18:31:13.481Z,5.86
2023-03-27T18:34:03.426Z,5.96
2023-03-27T18:36:52.699Z,5.98
2023-03-27T18:39:41.562Z,5.86
2023-03-27T18:42:30.336Z,5.85
2023-03-27T18:45:18.871Z,6.02
2023-03-27T18:48:08.310Z,5.96
2023-03-27T18:50:59.458Z,5.95
2023-03-27T18:53:48.066Z,6.08
2023-03-27T18:56:39.344Z,6.06
2023-03-27T18:59:27.847Z,5.98
2023-03-27T19:02:17.114Z,5.95
2023-03-27T19:05:06.136Z,5.86
2023-03-27T19:07:59.223Z,6.11
2023-03-27T19:10:47.706Z,6.08
2023-03-27T19:13:36.796Z,6.03
2023-03-27T19:16:25.267Z,5.91
2023-03-27T19:19:13.895Z,5.70
2023-03-27T19:22:02.564Z,5.87
2023-03-27T19:24:52.371Z,5.84
2023-03-27T19:27:40.881Z,5.69
2023-03-27T19:30:29.995Z,5.82
2023-03-27T19:33:18.458Z,5.85
2023-03-27T19:36:08.297Z,5.69
2023-03-27T19:38:56.874Z,5.73
2023-03-27T19:41:48.492Z,5.70
2023-03-27T19:44:38.009Z,5.74
2023-03-27T19:47:26.616Z,5.68
2023-03-27T19:50:16.066Z,5.64
2023-03-27T19:53:08.720Z,5.61
2023-03-27T19:55:58.880Z,5.57
2023-03-27T19:58:48.801Z,5.61
2023-03-27T20:01:37.927Z,5.63
2023-03-27T20:04:26.531Z,5.68
2023-03-27T20:07:15.325Z,5.67
2023-03-27T20:10:04.044Z,5.69
2023-03-27T20:12:52.867Z,5.60
2023-03-27T20:15:43.128Z,5.66
2023-03-27T20:18:34.122Z,5.69
2023-03-27T20:21:24.660Z,5.71
2023-03-27T20:24:20.128Z,5.72
2023-03-27T20:27:08.649Z,5.72
2023-03-27T20:29:57.633Z,5.71
2023-03-27T20:32:47.539Z,5.74
2023-03-27T20:35:36.915Z,5.76
2023-03-27T20:38:28.664Z,5.74
2023-03-27T20:41:17.278Z,5.68
2023-03-27T20:44:15.567Z,5.69
2023-03-27T20:47:10.914Z,5.60
2023-03-27T20:50:03.563Z,5.60
2023-03-27T20:52:52.018Z,5.51
2023-03-27T20:55:49.704Z,5.46
2023-03-27T20:58:46.036Z,5.37
2023-03-27T21:01:38.763Z,5.33
2023-03-27T21:04:28.389Z,5.09
2023-03-27T21:07:18.308Z,5.38
2023-03-27T21:10:08.097Z,5.34
2023-03-27T21:12:56.682Z,5.12
2023-03-27T21:15:45.267Z,5.17
2023-03-27T21:18:33.988Z,5.07
2023-03-27T21:21:22.553Z,5.06
2023-03-27T21:24:13.185Z,4.85
2023-03-27T21:27:01.958Z,5.01
2023-03-27T21:29:50.737Z,4.95
2023-03-27T21:32:39.287Z,4.87
2023-03-27T21:35:27.804Z,4.83
2023-03-27T21:38:17.281Z,4.84
2023-03-27T21:41:07.954Z,4.84
2023-03-27T21:43:56.401Z,4.79
2023-03-27T21:46:44.963Z,4.71
2023-03-27T21:49:33.473Z,4.70
2023-03-27T21:52:22.205Z,4.69
2023-03-27T21:55:10.819Z,4.66
2023-03-27T21:58:00.720Z,4.61
2023-03-27T22:00:49.288Z,4.50
2023-03-27T22:03:37.876Z,4.48
2023-03-27T22:06:28.788Z,4.51
2023-03-27T22:09:17.892Z,4.43
2023-03-27T22:12:07.013Z,4.43
2023-03-27T22:14:56.852Z,4.41
2023-03-27T22:17:46.267Z,4.43
2023-03-27T22:20:34.813Z,4.18
2023-03-27T22:23:23.297Z,4.15
2023-03-27T22:26:12.009Z,4.08
2023-03-27T22:29:00.672Z,4.09
2023-03-27T22:31:50.537Z,4.12
2023-03-27T22:34:39.013Z,4.11
2023-03-27T22:37:27.466Z,4.05
2023-03-27T22:40:16.253Z,4.12
2023-03-27T22:43:04.721Z,4.05
2023-03-27T22:45:53.554Z,4.13
2023-03-27T22:48:43.602Z,4.08
2023-03-27T22:51:32.390Z,4.03
2023-03-27T22:54:20.973Z,3.97
2023-03-27T22:57:10.035Z,4.03
2023-03-27T22:59:58.650Z,4.03
2023-03-27T23:02:47.251Z,3.96
2023-03-27T23:05:40.053Z,3.92
2023-03-27T23:08:28.959Z,3.94
2023-03-27T23:11:18.285Z,3.89
2023-03-27T23:14:07.012Z,3.88
2023-03-27T23:16:55.720Z,3.85
2023-03-27T23:19:44.341Z,3.82
2023-03-27T23:22:34.166Z,3.78
2023-03-27T23:25:22.730Z,3.75
2023-03-27T23:28:11.234Z,3.75
2023-03-27T23:31:01.371Z,3.74
2023-03-27T23:33:51.546Z,3.74
2023-03-27T23:36:40.361Z,3.80
2023-03-27T23:39:30.309Z,3.81
2023-03-27T23:42:18.829Z,3.65
2023-03-27T23:45:08.557Z,3.63
2023-03-27T23:47:57.037Z,3.83
2023-03-27T23:50:45.777Z,3.92
2023-03-27T23:53:34.435Z,3.93
2023-03-27T23:56:24.289Z,3.89
2023-03-27T23:59:12.957Z,3.59
